sensor_id;sensor_type;location;lat;lon;timestamp;temperature;humidity
26049;DHT22;13822;51.568;5.086;2023-05-10T03:42:40;13.00;99.90
26049;DHT22;13822;51.568;5.086;2023-05-10T05:05:57;12.40;99.90
26049;DHT22;13822;51.568;5.086;2023-05-10T05:10:59;12.50;99.90
26049;DHT22;13822;51.568;5.086;2023-05-10T05:16:01;12.50;99.90
26049;DHT22;13822;51.568;5.086;2023-05-10T05:21:13;12.50;99.90
26049;DHT22;13822;51.568;5.086;2023-05-10T05:26:16;12.50;99.90
26049;DHT22;13822;51.568;5.086;2023-05-10T05:31:18;12.50;99.90
26049;DHT22;13822;51.568;5.086;2023-05-10T05:36:20;12.60;99.90
26049;DHT22;13822;51.568;5.086;2023-05-10T05:41:22;12.60;99.90
26049;DHT22;13822;51.568;5.086;2023-05-10T05:46:26;12.70;99.90
26049;DHT22;13822;51.568;5.086;2023-05-10T05:51:27;12.70;99.90
26049;DHT22;13822;51.568;5.086;2023-05-10T05:56:29;12.70;99.90
26049;DHT22;13822;51.568;5.086;2023-05-10T06:01:31;12.80;99.90
26049;DHT22;13822;51.568;5.086;2023-05-10T06:06:33;12.80;99.90
26049;DHT22;13822;51.568;5.086;2023-05-10T06:11:35;12.90;99.90
26049;DHT22;13822;51.568;5.086;2023-05-10T06:16:38;12.90;99.90
26049;DHT22;13822;51.568;5.086;2023-05-10T06:21:39;13.00;99.90
26049;DHT22;13822;51.568;5.086;2023-05-10T06:26:41;13.00;99.90
26049;DHT22;13822;51.568;5.086;2023-05-10T06:31:43;13.00;99.90
26049;DHT22;13822;51.568;5.086;2023-05-10T06:36:45;13.00;99.90
26049;DHT22;13822;51.568;5.086;2023-05-10T06:41:47;13.00;99.90
26049;DHT22;13822;51.568;5.086;2023-05-10T06:46:49;12.90;99.90
26049;DHT22;13822;51.568;5.086;2023-05-10T06:51:51;12.90;99.90
26049;DHT22;13822;51.568;5.086;2023-05-10T06:56:53;12.90;99.90
26049;DHT22;13822;51.568;5.086;2023-05-10T07:01:58;12.80;99.90
26049;DHT22;13822;51.568;5.086;2023-05-10T07:07:00;12.90;99.90
26049;DHT22;13822;51.568;5.086;2023-05-10T07:12:02;12.90;99.90
26049;DHT22;13822;51.568;5.086;2023-05-10T07:17:04;12.90;99.90
26049;DHT22;13822;51.568;5.086;2023-05-10T07:22:06;12.90;99.90
26049;DHT22;13822;51.568;5.086;2023-05-10T07:27:08;12.90;99.90
26049;DHT22;13822;51.568;5.086;2023-05-10T07:32:10;12.90;99.90
26049;DHT22;13822;51.568;5.086;2023-05-10T07:37:12;13.10;99.90
26049;DHT22;13822;51.568;5.086;2023-05-10T07:42:14;13.20;99.90
26049;DHT22;13822;51.568;5.086;2023-05-10T07:47:16;13.30;99.90
26049;DHT22;13822;51.568;5.086;2023-05-10T07:52:18;13.50;99.90
26049;DHT22;13822;51.568;5.086;2023-05-10T07:57:23;13.60;99.90
26049;DHT22;13822;51.568;5.086;2023-05-10T08:02:25;13.80;99.90
26049;DHT22;13822;51.568;5.086;2023-05-10T08:07:27;14.00;99.90
26049;DHT22;13822;51.568;5.086;2023-05-10T08:12:28;14.10;99.90
26049;DHT22;13822;51.568;5.086;2023-05-10T08:17:30;14.30;99.90
26049;DHT22;13822;51.568;5.086;2023-05-10T08:22:32;14.30;99.90
26049;DHT22;13822;51.568;5.086;2023-05-10T08:27:34;14.40;99.90
26049;DHT22;13822;51.568;5.086;2023-05-10T08:32:36;14.60;99.90
26049;DHT22;13822;51.568;5.086;2023-05-10T08:37:39;14.70;99.90
26049;DHT22;13822;51.568;5.086;2023-05-10T08:42:43;14.80;99.90
26049;DHT22;13822;51.568;5.086;2023-05-10T08:47:49;14.90;99.90
26049;DHT22;13822;51.568;5.086;2023-05-10T08:52:52;15.00;99.90
26049;DHT22;13822;51.568;5.086;2023-05-10T08:57:57;15.10;99.90
26049;DHT22;13822;51.568;5.086;2023-05-10T09:02:59;15.10;99.90
26049;DHT22;13822;51.568;5.086;2023-05-10T09:08:02;15.20;99.90
26049;DHT22;13822;51.568;5.086;2023-05-10T09:13:04;15.40;99.90
26049;DHT22;13822;51.568;5.086;2023-05-10T09:18:06;15.50;99.90
26049;DHT22;13822;51.568;5.086;2023-05-10T09:23:08;15.60;99.90
26049;DHT22;13822;51.568;5.086;2023-05-10T09:28:10;15.50;99.90
26049;DHT22;13822;51.568;5.086;2023-05-10T09:33:12;15.50;99.90
26049;DHT22;13822;51.568;5.086;2023-05-10T09:38:14;15.50;99.90
26049;DHT22;13822;51.568;5.086;2023-05-10T09:43:19;15.50;99.90
26049;DHT22;13822;51.568;5.086;2023-05-10T09:48:23;15.50;99.90
26049;DHT22;13822;51.568;5.086;2023-05-10T09:53:25;15.50;99.90
26049;DHT22;13822;51.568;5.086;2023-05-10T09:58:27;15.50;99.90
26049;DHT22;13822;51.568;5.086;2023-05-10T10:03:29;15.60;99.90
26049;DHT22;13822;51.568;5.086;2023-05-10T10:08:31;15.50;99.90
26049;DHT22;13822;51.568;5.086;2023-05-10T10:13:33;15.50;99.90
26049;DHT22;13822;51.568;5.086;2023-05-10T10:18:36;15.60;99.90
26049;DHT22;13822;51.568;5.086;2023-05-10T10:23:41;15.60;99.90
26049;DHT22;13822;51.568;5.086;2023-05-10T10:28:47;15.80;99.90
26049;DHT22;13822;51.568;5.086;2023-05-10T10:39:18;16.00;99.90
26049;DHT22;13822;51.568;5.086;2023-05-10T10:49:30;16.00;99.90
26049;DHT22;13822;51.568;5.086;2023-05-10T10:54:38;16.10;99.90
26049;DHT22;13822;51.568;5.086;2023-05-10T10:59:41;16.20;99.90
26049;DHT22;13822;51.568;5.086;2023-05-10T11:04:46;16.30;99.90
26049;DHT22;13822;51.568;5.086;2023-05-10T11:09:48;16.40;99.90
26049;DHT22;13822;51.568;5.086;2023-05-10T11:14:50;16.50;99.90
26049;DHT22;13822;51.568;5.086;2023-05-10T11:20:11;16.70;99.90
26049;DHT22;13822;51.568;5.086;2023-05-10T11:25:16;16.90;99.90
26049;DHT22;13822;51.568;5.086;2023-05-10T11:30:18;17.00;99.90
26049;DHT22;13822;51.568;5.086;2023-05-10T11:35:21;17.10;99.90
26049;DHT22;13822;51.568;5.086;2023-05-10T11:40:23;17.20;99.90
26049;DHT22;13822;51.568;5.086;2023-05-10T11:45:28;17.20;99.90
26049;DHT22;13822;51.568;5.086;2023-05-10T11:50:30;17.00;99.90
26049;DHT22;13822;51.568;5.086;2023-05-10T11:55:33;16.90;99.90
26049;DHT22;13822;51.568;5.086;2023-05-10T12:00:35;16.80;99.90
26049;DHT22;13822;51.568;5.086;2023-05-10T12:05:37;16.60;99.90
26049;DHT22;13822;51.568;5.086;2023-05-10T12:10:41;16.50;99.90
26049;DHT22;13822;51.568;5.086;2023-05-10T12:15:43;16.50;99.90
26049;DHT22;13822;51.568;5.086;2023-05-10T12:20:45;16.40;99.90
26049;DHT22;13822;51.568;5.086;2023-05-10T12:25:47;16.40;99.90
26049;DHT22;13822;51.568;5.086;2023-05-10T12:30:49;16.40;99.90
26049;DHT22;13822;51.568;5.086;2023-05-10T12:35:58;16.40;99.90
26049;DHT22;13822;51.568;5.086;2023-05-10T12:41:01;16.60;99.90
26049;DHT22;13822;51.568;5.086;2023-05-10T12:46:06;16.70;99.90
26049;DHT22;13822;51.568;5.086;2023-05-10T12:51:11;16.90;99.90
26049;DHT22;13822;51.568;5.086;2023-05-10T12:56:16;17.10;99.90
26049;DHT22;13822;51.568;5.086;2023-05-10T13:01:18;16.90;99.90
26049;DHT22;13822;51.568;5.086;2023-05-10T13:06:20;16.70;99.90
26049;DHT22;13822;51.568;5.086;2023-05-10T13:11:22;16.40;99.90
26049;DHT22;13822;51.568;5.086;2023-05-10T13:16:24;16.30;99.90
26049;DHT22;13822;51.568;5.086;2023-05-10T13:21:26;16.20;99.90
26049;DHT22;13822;51.568;5.086;2023-05-10T13:26:29;16.10;99.90
26049;DHT22;13822;51.568;5.086;2023-05-10T13:31:31;16.20;99.90
26049;DHT22;13822;51.568;5.086;2023-05-10T13:36:33;16.40;99.90
26049;DHT22;13822;51.568;5.086;2023-05-10T13:41:35;16.40;99.90
26049;DHT22;13822;51.568;5.086;2023-05-10T13:46:38;16.50;99.90
26049;DHT22;13822;51.568;5.086;2023-05-10T13:51:40;16.40;99.90
26049;DHT22;13822;51.568;5.086;2023-05-10T13:56:42;16.20;99.90
26049;DHT22;13822;51.568;5.086;2023-05-10T14:01:43;16.20;99.90
26049;DHT22;13822;51.568;5.086;2023-05-10T14:06:46;16.10;99.90
26049;DHT22;13822;51.568;5.086;2023-05-10T14:11:48;16.10;99.90
26049;DHT22;13822;51.568;5.086;2023-05-10T14:16:50;16.00;99.90
26049;DHT22;13822;51.568;5.086;2023-05-10T14:21:52;15.90;99.90
26049;DHT22;13822;51.568;5.086;2023-05-10T14:26:53;15.80;99.90
26049;DHT22;13822;51.568;5.086;2023-05-10T14:31:55;15.80;99.90
26049;DHT22;13822;51.568;5.086;2023-05-10T14:36:57;15.80;99.90
26049;DHT22;13822;51.568;5.086;2023-05-10T14:41:59;15.90;99.90
26049;DHT22;13822;51.568;5.086;2023-05-10T14:47:01;15.90;99.90
26049;DHT22;13822;51.568;5.086;2023-05-10T14:52:03;15.90;99.90
26049;DHT22;13822;51.568;5.086;2023-05-10T14:57:06;15.90;99.90
26049;DHT22;13822;51.568;5.086;2023-05-10T15:02:08;15.80;99.90
26049;DHT22;13822;51.568;5.086;2023-05-10T15:07:11;15.80;99.90
26049;DHT22;13822;51.568;5.086;2023-05-10T15:12:15;15.80;99.90
26049;DHT22;13822;51.568;5.086;2023-05-10T15:17:17;15.70;99.90
26049;DHT22;13822;51.568;5.086;2023-05-10T15:22:19;15.70;99.90
26049;DHT22;13822;51.568;5.086;2023-05-10T15:27:22;15.70;99.90
26049;DHT22;13822;51.568;5.086;2023-05-10T15:32:24;15.60;99.90
26049;DHT22;13822;51.568;5.086;2023-05-10T15:37:26;15.60;99.90
26049;DHT22;13822;51.568;5.086;2023-05-10T15:42:29;15.50;99.90
26049;DHT22;13822;51.568;5.086;2023-05-10T15:47:34;15.40;99.90
26049;DHT22;13822;51.568;5.086;2023-05-10T15:52:36;15.20;99.90
26049;DHT22;13822;51.568;5.086;2023-05-10T15:57:38;15.10;99.90
26049;DHT22;13822;51.568;5.086;2023-05-10T16:02:41;15.00;99.90
26049;DHT22;13822;51.568;5.086;2023-05-10T16:07:44;15.00;99.90
26049;DHT22;13822;51.568;5.086;2023-05-10T16:12:47;14.90;99.90
26049;DHT22;13822;51.568;5.086;2023-05-10T16:17:49;14.80;99.90
26049;DHT22;13822;51.568;5.086;2023-05-10T16:22:51;14.70;99.90
26049;DHT22;13822;51.568;5.086;2023-05-10T16:27:53;14.70;99.90
26049;DHT22;13822;51.568;5.086;2023-05-10T16:32:56;14.70;99.90
26049;DHT22;13822;51.568;5.086;2023-05-10T16:37:58;14.70;99.90
26049;DHT22;13822;51.568;5.086;2023-05-10T16:43:00;14.70;99.90
26049;DHT22;13822;51.568;5.086;2023-05-10T16:48:04;14.60;99.90
26049;DHT22;13822;51.568;5.086;2023-05-10T16:53:06;14.60;99.90
26049;DHT22;13822;51.568;5.086;2023-05-10T16:58:09;14.60;99.90
26049;DHT22;13822;51.568;5.086;2023-05-10T17:03:11;14.50;99.90
26049;DHT22;13822;51.568;5.086;2023-05-10T17:08:13;14.60;99.90
26049;DHT22;13822;51.568;5.086;2023-05-10T17:13:15;14.90;99.90
26049;DHT22;13822;51.568;5.086;2023-05-10T17:18:17;15.20;99.90
26049;DHT22;13822;51.568;5.086;2023-05-10T17:23:20;15.30;99.90
26049;DHT22;13822;51.568;5.086;2023-05-10T17:28:22;15.50;99.90
26049;DHT22;13822;51.568;5.086;2023-05-10T17:33:24;15.50;99.90
26049;DHT22;13822;51.568;5.086;2023-05-10T17:38:26;15.40;99.90
26049;DHT22;13822;51.568;5.086;2023-05-10T17:43:28;15.40;99.90
26049;DHT22;13822;51.568;5.086;2023-05-10T17:48:30;15.30;99.90
26049;DHT22;13822;51.568;5.086;2023-05-10T17:53:32;15.30;99.90
26049;DHT22;13822;51.568;5.086;2023-05-10T17:58:35;15.20;99.90
26049;DHT22;13822;51.568;5.086;2023-05-10T18:03:38;15.20;99.90
26049;DHT22;13822;51.568;5.086;2023-05-10T18:08:42;15.10;99.90
26049;DHT22;13822;51.568;5.086;2023-05-10T18:13:46;15.00;99.90
26049;DHT22;13822;51.568;5.086;2023-05-10T18:18:51;15.00;99.90
26049;DHT22;13822;51.568;5.086;2023-05-10T18:23:53;15.00;99.90
26049;DHT22;13822;51.568;5.086;2023-05-10T18:28:55;14.90;99.90
26049;DHT22;13822;51.568;5.086;2023-05-10T18:33:59;14.80;99.90
26049;DHT22;13822;51.568;5.086;2023-05-10T18:39:01;14.70;99.90
26049;DHT22;13822;51.568;5.086;2023-05-10T18:44:04;14.70;99.90
26049;DHT22;13822;51.568;5.086;2023-05-10T18:49:06;14.70;99.90
26049;DHT22;13822;51.568;5.086;2023-05-10T18:54:08;14.60;99.90
26049;DHT22;13822;51.568;5.086;2023-05-10T18:59:13;14.60;99.90
26049;DHT22;13822;51.568;5.086;2023-05-10T19:04:14;14.50;99.90
26049;DHT22;13822;51.568;5.086;2023-05-10T19:09:16;14.40;99.90
26049;DHT22;13822;51.568;5.086;2023-05-10T19:14:20;14.40;99.90
26049;DHT22;13822;51.568;5.086;2023-05-10T19:19:23;14.30;99.90
26049;DHT22;13822;51.568;5.086;2023-05-10T19:24:25;14.20;99.90
26049;DHT22;13822;51.568;5.086;2023-05-10T19:29:27;14.20;99.90
26049;DHT22;13822;51.568;5.086;2023-05-10T19:34:29;14.10;99.90
26049;DHT22;13822;51.568;5.086;2023-05-10T19:39:32;14.00;99.90
26049;DHT22;13822;51.568;5.086;2023-05-10T19:44:34;14.00;99.90
26049;DHT22;13822;51.568;5.086;2023-05-10T19:49:36;13.90;99.90
26049;DHT22;13822;51.568;5.086;2023-05-10T19:55:01;13.90;99.90
26049;DHT22;13822;51.568;5.086;2023-05-10T20:00:37;13.80;99.90
26049;DHT22;13822;51.568;5.086;2023-05-10T20:06:45;13.80;99.90
26049;DHT22;13822;51.568;5.086;2023-05-10T20:19:20;13.70;99.90
26049;DHT22;13822;51.568;5.086;2023-05-10T21:11:16;13.40;99.90
26049;DHT22;13822;51.568;5.086;2023-05-10T22:31:59;13.30;99.90
26049;DHT22;13822;51.568;5.086;2023-05-10T22:44:24;13.40;99.90
26049;DHT22;13822;51.568;5.086;2023-05-10T22:50:23;13.40;99.90
26049;DHT22;13822;51.568;5.086;2023-05-10T23:48:17;13.50;99.90
